Hinesville, GA

11:12 AM EST on February 09, 2016 (GMT -0500)
Wright Army Air Field | | Change Station
CLOSE
Current Station
Airport
Location: Ft. Stewart,
Elevation: 46 ft
Nearby Weather Stations
Active Advisory: Special Statement

Elev 46 ft 31.89 °N, 81.56 °W | Updated 14 minutes ago

Mostly Cloudy
Mostly Cloudy
44 °F
Feels Like 35 °F
N
22
Wind Variable Wind from West
Gusts 32 mph

Today
High -- | Low -- °F
--% Chance of Precip.
Yesterday
High -- | Low -- °F
Precip. -- in
Pressure 29.89 in
Visibility 10.0 miles
Clouds Mostly Cloudy 5500 ft
Windchill 35 °F
Dew Point 23 °F
Humidity 45%
Rainfall 0.00 in
Snow Depth Not available.
7:14 AM 6:07 PM
New Moon, 2% visible
METAR KLHW 091558Z AUTO 26019G28KT 10SM BKN055 07/M05 A2988 RMK AO2 PK WND 24037/41 SLP122 T00651048 $
Pressure 29.89 in
Visibility 10.0 miles
Clouds Mostly Cloudy 5500 ft
Windchill 35 °F
Dew Point 23 °F
Humidity 45%
Rainfall 0.00 in
Snow Depth Not available.
7:14 AM 6:07 PM
New Moon, 2% visible
METAR KLHW 091558Z AUTO 26019G28KT 10SM BKN055 07/M05 A2988 RMK AO2 PK WND 24037/41 SLP122 T00651048 $

10-Day Weather Forecast

Almanac

Astronomy

Feb. 09, 2016 Rise Set
Actual Time
Civil Twilight
Nautical Twilight
Astronomical Twilight
Moon
Length of Visible Light
Length of Day
Tomorrow will be .
, % of the Moon is Illuminated

Today's Extremes

State Highs State Lows

Community

WunderPhotos

Upload Photos

1,891,629 photos uploaded!

WunderBlog® & News

Nearby

Air Quality

  Air Quality AQ Index Pollutant
Not available.

Snow Depth

Station Depth Elevation

Earthquake Activity

City Distance Mag. Time & Date
Minimum magnitude displayed is 2.5.

Coastal Water Temperatures

Place Temperature

Stations

Nearby Weather Stations

Station Location Temp. Windchill Dew Point Humidity Wind Precip. Elev Updated Type
                   

Watches & Warnings

Special Statement
Issued: 10:54 AM EST Feb. 9, 2016 – National Weather Service

... Breezy conditions through this afternoon...

West winds are expected to gust as high as around 35 mph through
this evening... with a few higher gusts possible... especially on
elevated roadways such as bridges and overpasses. This could lead
to the felling of some weaker trees due to very wet grounds.

Precautionary/preparedness actions...

Be careful when driving high profile vehicles across bridges and
overpasses. Be alert for the possibility that some weak trees
could fall.